sensor_id;sensor_type;location;lat;lon;timestamp;temperature;humidity
19941;DHT22;10132;50.864;5.176;2023-07-13T00:00:50;16.00;99.90
19941;DHT22;10132;50.864;5.176;2023-07-13T00:02:52;16.00;99.90
19941;DHT22;10132;50.864;5.176;2023-07-13T00:04:54;15.90;99.90
19941;DHT22;10132;50.864;5.176;2023-07-13T00:06:56;15.90;99.90
19941;DHT22;10132;50.864;5.176;2023-07-13T00:08:58;15.90;99.90
19941;DHT22;10132;50.864;5.176;2023-07-13T00:10:59;16.00;99.90
19941;DHT22;10132;50.864;5.176;2023-07-13T00:13:02;16.00;99.90
19941;DHT22;10132;50.864;5.176;2023-07-13T00:15:10;16.10;99.90
19941;DHT22;10132;50.864;5.176;2023-07-13T00:17:13;15.90;99.90
19941;DHT22;10132;50.864;5.176;2023-07-13T00:19:15;15.80;99.90
19941;DHT22;10132;50.864;5.176;2023-07-13T00:21:17;15.70;99.90
19941;DHT22;10132;50.864;5.176;2023-07-13T00:23:19;15.60;99.90
19941;DHT22;10132;50.864;5.176;2023-07-13T00:25:22;15.60;99.90
19941;DHT22;10132;50.864;5.176;2023-07-13T00:27:24;15.70;99.90
19941;DHT22;10132;50.864;5.176;2023-07-13T00:29:27;15.80;99.90
19941;DHT22;10132;50.864;5.176;2023-07-13T00:31:31;15.80;99.90
19941;DHT22;10132;50.864;5.176;2023-07-13T00:33:33;15.90;99.90
19941;DHT22;10132;50.864;5.176;2023-07-13T00:35:35;15.90;99.90
19941;DHT22;10132;50.864;5.176;2023-07-13T00:37:38;15.90;99.90
19941;DHT22;10132;50.864;5.176;2023-07-13T00:39:40;16.00;99.90
19941;DHT22;10132;50.864;5.176;2023-07-13T00:41:42;15.90;99.90
19941;DHT22;10132;50.864;5.176;2023-07-13T00:43:45;15.70;99.90
19941;DHT22;10132;50.864;5.176;2023-07-13T00:46:13;15.60;99.90
19941;DHT22;10132;50.864;5.176;2023-07-13T00:48:21;15.60;99.90
19941;DHT22;10132;50.864;5.176;2023-07-13T00:50:25;15.50;99.90
19941;DHT22;10132;50.864;5.176;2023-07-13T00:52:27;15.50;99.90
19941;DHT22;10132;50.864;5.176;2023-07-13T00:54:32;15.50;99.90
19941;DHT22;10132;50.864;5.176;2023-07-13T00:56:35;15.60;99.90
19941;DHT22;10132;50.864;5.176;2023-07-13T00:58:38;15.60;99.90
19941;DHT22;10132;50.864;5.176;2023-07-13T01:00:40;15.60;99.90
19941;DHT22;10132;50.864;5.176;2023-07-13T01:02:44;15.60;99.90
19941;DHT22;10132;50.864;5.176;2023-07-13T01:04:49;15.60;99.90
19941;DHT22;10132;50.864;5.176;2023-07-13T01:06:51;15.50;99.90
19941;DHT22;10132;50.864;5.176;2023-07-13T01:08:53;15.50;99.90
19941;DHT22;10132;50.864;5.176;2023-07-13T01:10:57;15.50;99.90
19941;DHT22;10132;50.864;5.176;2023-07-13T01:12:59;15.40;99.90
19941;DHT22;10132;50.864;5.176;2023-07-13T01:15:02;15.40;99.90
19941;DHT22;10132;50.864;5.176;2023-07-13T01:17:05;15.50;99.90
19941;DHT22;10132;50.864;5.176;2023-07-13T01:19:13;15.50;99.90
19941;DHT22;10132;50.864;5.176;2023-07-13T01:21:18;15.40;99.90
19941;DHT22;10132;50.864;5.176;2023-07-13T01:23:20;15.40;99.90
19941;DHT22;10132;50.864;5.176;2023-07-13T01:25:22;15.40;99.90
19941;DHT22;10132;50.864;5.176;2023-07-13T01:27:25;15.40;99.90
19941;DHT22;10132;50.864;5.176;2023-07-13T01:29:30;15.40;99.90
19941;DHT22;10132;50.864;5.176;2023-07-13T01:31:32;15.40;99.90
19941;DHT22;10132;50.864;5.176;2023-07-13T01:33:35;15.40;99.90
19941;DHT22;10132;50.864;5.176;2023-07-13T01:35:38;15.40;99.90
19941;DHT22;10132;50.864;5.176;2023-07-13T01:37:40;15.50;99.90
19941;DHT22;10132;50.864;5.176;2023-07-13T01:39:42;15.50;99.90
19941;DHT22;10132;50.864;5.176;2023-07-13T01:41:44;15.50;99.90
19941;DHT22;10132;50.864;5.176;2023-07-13T01:43:46;15.50;99.90
19941;DHT22;10132;50.864;5.176;2023-07-13T01:45:48;15.40;99.90
19941;DHT22;10132;50.864;5.176;2023-07-13T01:47:50;15.30;99.90
19941;DHT22;10132;50.864;5.176;2023-07-13T01:49:51;15.40;99.90
19941;DHT22;10132;50.864;5.176;2023-07-13T01:51:53;15.50;99.90
19941;DHT22;10132;50.864;5.176;2023-07-13T01:53:56;15.50;99.90
19941;DHT22;10132;50.864;5.176;2023-07-13T01:55:58;15.40;99.90
19941;DHT22;10132;50.864;5.176;2023-07-13T01:58:01;15.30;99.90
19941;DHT22;10132;50.864;5.176;2023-07-13T02:00:05;15.20;99.90
19941;DHT22;10132;50.864;5.176;2023-07-13T02:02:07;15.30;99.90
19941;DHT22;10132;50.864;5.176;2023-07-13T02:04:09;15.30;99.90
19941;DHT22;10132;50.864;5.176;2023-07-13T02:06:11;15.20;99.90
19941;DHT22;10132;50.864;5.176;2023-07-13T02:08:13;15.20;99.90
19941;DHT22;10132;50.864;5.176;2023-07-13T02:10:17;15.30;99.90
19941;DHT22;10132;50.864;5.176;2023-07-13T02:12:19;15.30;99.90
19941;DHT22;10132;50.864;5.176;2023-07-13T02:14:20;15.40;99.90
19941;DHT22;10132;50.864;5.176;2023-07-13T02:16:22;15.30;99.90
19941;DHT22;10132;50.864;5.176;2023-07-13T02:18:24;15.30;99.90
19941;DHT22;10132;50.864;5.176;2023-07-13T02:20:26;15.20;99.90
19941;DHT22;10132;50.864;5.176;2023-07-13T02:22:28;15.20;99.90
19941;DHT22;10132;50.864;5.176;2023-07-13T02:24:30;15.20;99.90
19941;DHT22;10132;50.864;5.176;2023-07-13T02:26:34;15.30;99.90
19941;DHT22;10132;50.864;5.176;2023-07-13T02:28:36;15.30;99.90
19941;DHT22;10132;50.864;5.176;2023-07-13T02:30:38;15.30;99.90
19941;DHT22;10132;50.864;5.176;2023-07-13T02:32:40;15.10;99.90
19941;DHT22;10132;50.864;5.176;2023-07-13T02:34:44;15.00;99.90
19941;DHT22;10132;50.864;5.176;2023-07-13T02:36:46;15.00;99.90
19941;DHT22;10132;50.864;5.176;2023-07-13T02:38:49;15.00;99.90
19941;DHT22;10132;50.864;5.176;2023-07-13T02:40:51;15.10;99.90
19941;DHT22;10132;50.864;5.176;2023-07-13T02:42:54;15.10;99.90
19941;DHT22;10132;50.864;5.176;2023-07-13T02:44:56;15.20;99.90
19941;DHT22;10132;50.864;5.176;2023-07-13T02:46:57;15.20;99.90
19941;DHT22;10132;50.864;5.176;2023-07-13T02:48:59;15.30;99.90
19941;DHT22;10132;50.864;5.176;2023-07-13T02:51:01;15.20;99.90
19941;DHT22;10132;50.864;5.176;2023-07-13T02:53:03;15.10;99.90
19941;DHT22;10132;50.864;5.176;2023-07-13T02:55:06;15.00;99.90
19941;DHT22;10132;50.864;5.176;2023-07-13T02:57:08;15.00;99.90
19941;DHT22;10132;50.864;5.176;2023-07-13T02:59:11;15.10;99.90
19941;DHT22;10132;50.864;5.176;2023-07-13T03:01:13;15.00;99.90
19941;DHT22;10132;50.864;5.176;2023-07-13T03:03:19;14.90;99.90
19941;DHT22;10132;50.864;5.176;2023-07-13T03:05:21;15.00;99.90
19941;DHT22;10132;50.864;5.176;2023-07-13T03:07:23;14.90;99.90
19941;DHT22;10132;50.864;5.176;2023-07-13T03:09:26;14.90;99.90
19941;DHT22;10132;50.864;5.176;2023-07-13T03:11:28;15.00;99.90
19941;DHT22;10132;50.864;5.176;2023-07-13T03:13:30;14.90;99.90
19941;DHT22;10132;50.864;5.176;2023-07-13T03:15:33;15.00;99.90
19941;DHT22;10132;50.864;5.176;2023-07-13T03:17:35;15.00;99.90
19941;DHT22;10132;50.864;5.176;2023-07-13T03:19:37;15.00;99.90
19941;DHT22;10132;50.864;5.176;2023-07-13T03:21:39;14.90;99.90
19941;DHT22;10132;50.864;5.176;2023-07-13T03:23:41;14.90;99.90
19941;DHT22;10132;50.864;5.176;2023-07-13T03:25:43;14.90;99.90
19941;DHT22;10132;50.864;5.176;2023-07-13T03:27:45;14.90;99.90
19941;DHT22;10132;50.864;5.176;2023-07-13T03:29:47;14.90;99.90
19941;DHT22;10132;50.864;5.176;2023-07-13T03:31:51;14.80;99.90
19941;DHT22;10132;50.864;5.176;2023-07-13T03:33:53;14.80;99.90
19941;DHT22;10132;50.864;5.176;2023-07-13T03:35:55;14.80;99.90
19941;DHT22;10132;50.864;5.176;2023-07-13T03:37:57;14.80;99.90
19941;DHT22;10132;50.864;5.176;2023-07-13T03:39:59;14.60;99.90
19941;DHT22;10132;50.864;5.176;2023-07-13T03:42:01;14.70;99.90
19941;DHT22;10132;50.864;5.176;2023-07-13T03:44:03;14.80;99.90
19941;DHT22;10132;50.864;5.176;2023-07-13T03:46:04;14.80;99.90
19941;DHT22;10132;50.864;5.176;2023-07-13T03:48:08;14.90;99.90
19941;DHT22;10132;50.864;5.176;2023-07-13T03:50:09;15.00;99.90
19941;DHT22;10132;50.864;5.176;2023-07-13T03:52:11;15.00;99.90
19941;DHT22;10132;50.864;5.176;2023-07-13T03:54:13;15.00;99.90
19941;DHT22;10132;50.864;5.176;2023-07-13T03:56:16;15.00;99.90
19941;DHT22;10132;50.864;5.176;2023-07-13T03:58:27;15.10;99.90
19941;DHT22;10132;50.864;5.176;2023-07-13T04:00:28;15.10;99.90
19941;DHT22;10132;50.864;5.176;2023-07-13T04:02:30;15.00;99.90
19941;DHT22;10132;50.864;5.176;2023-07-13T04:04:34;14.90;99.90
19941;DHT22;10132;50.864;5.176;2023-07-13T04:06:35;14.90;99.90
19941;DHT22;10132;50.864;5.176;2023-07-13T04:08:37;14.90;99.90
19941;DHT22;10132;50.864;5.176;2023-07-13T04:10:39;15.00;99.90
19941;DHT22;10132;50.864;5.176;2023-07-13T04:12:41;15.00;99.90
19941;DHT22;10132;50.864;5.176;2023-07-13T04:14:42;14.90;99.90
19941;DHT22;10132;50.864;5.176;2023-07-13T04:16:44;15.00;99.90
19941;DHT22;10132;50.864;5.176;2023-07-13T04:18:47;15.00;99.90
19941;DHT22;10132;50.864;5.176;2023-07-13T04:20:51;15.10;99.90
19941;DHT22;10132;50.864;5.176;2023-07-13T04:22:53;15.00;99.90
19941;DHT22;10132;50.864;5.176;2023-07-13T04:24:55;15.10;99.90
19941;DHT22;10132;50.864;5.176;2023-07-13T04:26:57;15.10;99.90
19941;DHT22;10132;50.864;5.176;2023-07-13T04:29:00;15.10;99.90
19941;DHT22;10132;50.864;5.176;2023-07-13T04:31:03;15.20;99.90
19941;DHT22;10132;50.864;5.176;2023-07-13T04:33:06;15.20;99.90
19941;DHT22;10132;50.864;5.176;2023-07-13T04:35:09;15.40;99.90
19941;DHT22;10132;50.864;5.176;2023-07-13T04:37:12;15.50;99.90
19941;DHT22;10132;50.864;5.176;2023-07-13T04:39:14;15.50;99.90
19941;DHT22;10132;50.864;5.176;2023-07-13T04:41:16;15.70;99.90
19941;DHT22;10132;50.864;5.176;2023-07-13T04:43:18;15.70;99.90
19941;DHT22;10132;50.864;5.176;2023-07-13T04:45:20;15.60;99.90
19941;DHT22;10132;50.864;5.176;2023-07-13T04:47:24;15.70;99.90
19941;DHT22;10132;50.864;5.176;2023-07-13T04:49:26;15.70;99.90
19941;DHT22;10132;50.864;5.176;2023-07-13T04:51:28;15.60;99.90
19941;DHT22;10132;50.864;5.176;2023-07-13T04:53:31;15.50;99.90
19941;DHT22;10132;50.864;5.176;2023-07-13T04:55:34;15.40;99.90
19941;DHT22;10132;50.864;5.176;2023-07-13T04:57:35;15.40;99.90
19941;DHT22;10132;50.864;5.176;2023-07-13T04:59:38;15.50;99.90
19941;DHT22;10132;50.864;5.176;2023-07-13T05:01:40;15.40;99.90
19941;DHT22;10132;50.864;5.176;2023-07-13T05:03:42;15.50;99.90
19941;DHT22;10132;50.864;5.176;2023-07-13T05:05:54;15.30;99.90
19941;DHT22;10132;50.864;5.176;2023-07-13T05:07:57;15.30;99.90
19941;DHT22;10132;50.864;5.176;2023-07-13T05:10:00;15.40;99.90
19941;DHT22;10132;50.864;5.176;2023-07-13T05:12:02;15.40;99.90
19941;DHT22;10132;50.864;5.176;2023-07-13T05:14:04;15.50;99.90
19941;DHT22;10132;50.864;5.176;2023-07-13T05:16:06;15.60;99.90
19941;DHT22;10132;50.864;5.176;2023-07-13T05:18:09;15.70;99.90
19941;DHT22;10132;50.864;5.176;2023-07-13T05:20:10;15.60;99.90
19941;DHT22;10132;50.864;5.176;2023-07-13T05:22:12;15.60;99.90
19941;DHT22;10132;50.864;5.176;2023-07-13T05:24:13;15.60;99.90
19941;DHT22;10132;50.864;5.176;2023-07-13T05:26:16;15.80;99.90
19941;DHT22;10132;50.864;5.176;2023-07-13T05:28:18;15.90;99.90
19941;DHT22;10132;50.864;5.176;2023-07-13T05:30:20;16.10;99.90
19941;DHT22;10132;50.864;5.176;2023-07-13T05:32:22;16.10;99.90
19941;DHT22;10132;50.864;5.176;2023-07-13T05:34:24;16.10;99.90
19941;DHT22;10132;50.864;5.176;2023-07-13T05:36:25;16.10;99.90
19941;DHT22;10132;50.864;5.176;2023-07-13T05:38:28;16.20;99.90
19941;DHT22;10132;50.864;5.176;2023-07-13T05:40:30;16.20;99.90
19941;DHT22;10132;50.864;5.176;2023-07-13T05:42:33;16.20;99.90
19941;DHT22;10132;50.864;5.176;2023-07-13T05:44:35;16.30;99.90
19941;DHT22;10132;50.864;5.176;2023-07-13T05:46:37;16.30;99.90
19941;DHT22;10132;50.864;5.176;2023-07-13T05:48:39;16.40;99.90
19941;DHT22;10132;50.864;5.176;2023-07-13T05:50:41;16.50;99.90
19941;DHT22;10132;50.864;5.176;2023-07-13T05:52:43;16.40;99.90
19941;DHT22;10132;50.864;5.176;2023-07-13T05:54:45;16.30;99.90
19941;DHT22;10132;50.864;5.176;2023-07-13T05:56:47;16.30;99.90
19941;DHT22;10132;50.864;5.176;2023-07-13T05:58:49;16.50;99.90
19941;DHT22;10132;50.864;5.176;2023-07-13T06:00:59;16.50;99.90
19941;DHT22;10132;50.864;5.176;2023-07-13T06:03:02;16.60;99.90
19941;DHT22;10132;50.864;5.176;2023-07-13T06:05:05;16.80;99.90
19941;DHT22;10132;50.864;5.176;2023-07-13T06:07:07;16.90;99.90
19941;DHT22;10132;50.864;5.176;2023-07-13T06:09:09;17.00;99.90
19941;DHT22;10132;50.864;5.176;2023-07-13T06:11:14;17.00;99.90
19941;DHT22;10132;50.864;5.176;2023-07-13T06:13:16;17.00;99.90
19941;DHT22;10132;50.864;5.176;2023-07-13T06:15:21;17.10;99.90
19941;DHT22;10132;50.864;5.176;2023-07-13T06:17:23;17.10;99.90
19941;DHT22;10132;50.864;5.176;2023-07-13T06:19:25;17.10;99.90
19941;DHT22;10132;50.864;5.176;2023-07-13T06:21:27;17.00;99.90
19941;DHT22;10132;50.864;5.176;2023-07-13T06:23:28;17.10;99.90
19941;DHT22;10132;50.864;5.176;2023-07-13T06:25:30;17.20;99.90
19941;DHT22;10132;50.864;5.176;2023-07-13T06:27:32;17.20;99.90
19941;DHT22;10132;50.864;5.176;2023-07-13T06:29:34;17.30;99.90
19941;DHT22;10132;50.864;5.176;2023-07-13T06:31:38;17.30;99.90
19941;DHT22;10132;50.864;5.176;2023-07-13T06:33:40;17.30;99.90
19941;DHT22;10132;50.864;5.176;2023-07-13T06:35:42;17.40;99.90
19941;DHT22;10132;50.864;5.176;2023-07-13T06:37:44;17.30;99.90
19941;DHT22;10132;50.864;5.176;2023-07-13T06:39:47;17.30;99.90
19941;DHT22;10132;50.864;5.176;2023-07-13T06:41:49;17.30;99.90
19941;DHT22;10132;50.864;5.176;2023-07-13T06:43:51;17.30;99.90
19941;DHT22;10132;50.864;5.176;2023-07-13T06:45:55;17.20;99.90
19941;DHT22;10132;50.864;5.176;2023-07-13T06:47:58;17.20;99.90
19941;DHT22;10132;50.864;5.176;2023-07-13T06:50:00;17.30;99.90
19941;DHT22;10132;50.864;5.176;2023-07-13T06:52:03;17.50;99.90
19941;DHT22;10132;50.864;5.176;2023-07-13T06:54:05;17.70;99.90
19941;DHT22;10132;50.864;5.176;2023-07-13T06:56:07;17.70;99.90
19941;DHT22;10132;50.864;5.176;2023-07-13T06:58:09;17.60;99.90
19941;DHT22;10132;50.864;5.176;2023-07-13T07:00:12;17.80;99.90
19941;DHT22;10132;50.864;5.176;2023-07-13T07:02:15;18.00;99.90
19941;DHT22;10132;50.864;5.176;2023-07-13T07:04:18;17.80;99.90
19941;DHT22;10132;50.864;5.176;2023-07-13T07:06:21;17.90;99.90
19941;DHT22;10132;50.864;5.176;2023-07-13T07:08:24;18.00;99.90
19941;DHT22;10132;50.864;5.176;2023-07-13T07:10:26;18.20;99.90
19941;DHT22;10132;50.864;5.176;2023-07-13T07:12:29;18.30;99.90
19941;DHT22;10132;50.864;5.176;2023-07-13T07:14:31;18.20;99.90
19941;DHT22;10132;50.864;5.176;2023-07-13T07:16:34;18.20;99.90
19941;DHT22;10132;50.864;5.176;2023-07-13T07:18:36;18.20;99.90
19941;DHT22;10132;50.864;5.176;2023-07-13T07:20:40;18.10;99.90
19941;DHT22;10132;50.864;5.176;2023-07-13T07:22:42;18.20;99.90
19941;DHT22;10132;50.864;5.176;2023-07-13T07:24:42;18.30;99.90
19941;DHT22;10132;50.864;5.176;2023-07-13T07:26:44;18.30;99.90
19941;DHT22;10132;50.864;5.176;2023-07-13T07:28:46;18.50;99.90
19941;DHT22;10132;50.864;5.176;2023-07-13T07:30:49;18.30;99.90
19941;DHT22;10132;50.864;5.176;2023-07-13T07:32:54;18.10;99.90
19941;DHT22;10132;50.864;5.176;2023-07-13T07:34:56;18.20;99.90
19941;DHT22;10132;50.864;5.176;2023-07-13T07:37:01;18.30;99.90
19941;DHT22;10132;50.864;5.176;2023-07-13T07:39:03;18.50;99.90
19941;DHT22;10132;50.864;5.176;2023-07-13T07:41:05;18.50;99.90
19941;DHT22;10132;50.864;5.176;2023-07-13T07:43:08;18.50;99.90
19941;DHT22;10132;50.864;5.176;2023-07-13T07:45:10;18.60;99.90
19941;DHT22;10132;50.864;5.176;2023-07-13T07:47:12;18.60;99.90
19941;DHT22;10132;50.864;5.176;2023-07-13T07:49:16;18.70;99.90
19941;DHT22;10132;50.864;5.176;2023-07-13T07:51:17;18.80;99.90
19941;DHT22;10132;50.864;5.176;2023-07-13T07:53:21;18.90;99.90
19941;DHT22;10132;50.864;5.176;2023-07-13T07:55:24;18.90;99.90
19941;DHT22;10132;50.864;5.176;2023-07-13T07:57:27;18.90;99.90
19941;DHT22;10132;50.864;5.176;2023-07-13T07:59:29;19.00;99.90
19941;DHT22;10132;50.864;5.176;2023-07-13T08:01:31;18.90;99.90
19941;DHT22;10132;50.864;5.176;2023-07-13T08:03:33;19.10;99.90
19941;DHT22;10132;50.864;5.176;2023-07-13T08:05:35;19.10;99.90
19941;DHT22;10132;50.864;5.176;2023-07-13T08:07:38;18.90;99.90
19941;DHT22;10132;50.864;5.176;2023-07-13T08:09:41;18.90;99.90
19941;DHT22;10132;50.864;5.176;2023-07-13T08:11:43;19.00;99.90
19941;DHT22;10132;50.864;5.176;2023-07-13T08:13:45;19.40;99.90
19941;DHT22;10132;50.864;5.176;2023-07-13T08:15:47;19.40;99.90
19941;DHT22;10132;50.864;5.176;2023-07-13T08:17:50;19.50;99.90
19941;DHT22;10132;50.864;5.176;2023-07-13T08:19:52;19.50;99.90
19941;DHT22;10132;50.864;5.176;2023-07-13T08:21:54;19.30;99.90
19941;DHT22;10132;50.864;5.176;2023-07-13T08:23:56;19.40;99.90
19941;DHT22;10132;50.864;5.176;2023-07-13T08:25:59;19.40;99.90
19941;DHT22;10132;50.864;5.176;2023-07-13T08:28:02;19.40;99.90
19941;DHT22;10132;50.864;5.176;2023-07-13T08:30:05;19.30;99.90
19941;DHT22;10132;50.864;5.176;2023-07-13T08:32:09;19.00;99.90
19941;DHT22;10132;50.864;5.176;2023-07-13T08:34:11;18.90;99.90
19941;DHT22;10132;50.864;5.176;2023-07-13T08:36:15;19.20;99.90
19941;DHT22;10132;50.864;5.176;2023-07-13T08:38:18;19.50;99.90
19941;DHT22;10132;50.864;5.176;2023-07-13T08:40:24;19.70;99.90
19941;DHT22;10132;50.864;5.176;2023-07-13T08:42:34;20.00;99.90
19941;DHT22;10132;50.864;5.176;2023-07-13T08:44:49;20.40;99.90
19941;DHT22;10132;50.864;5.176;2023-07-13T08:46:56;20.60;99.90
19941;DHT22;10132;50.864;5.176;2023-07-13T08:49:03;20.40;99.90
19941;DHT22;10132;50.864;5.176;2023-07-13T08:51:12;20.40;99.90
19941;DHT22;10132;50.864;5.176;2023-07-13T08:53:24;20.40;99.90
19941;DHT22;10132;50.864;5.176;2023-07-13T08:58:18;20.00;99.90
19941;DHT22;10132;50.864;5.176;2023-07-13T09:00:20;20.20;99.90
19941;DHT22;10132;50.864;5.176;2023-07-13T09:02:27;20.20;99.90
19941;DHT22;10132;50.864;5.176;2023-07-13T09:04:34;19.90;99.90
19941;DHT22;10132;50.864;5.176;2023-07-13T09:06:45;19.90;99.90
19941;DHT22;10132;50.864;5.176;2023-07-13T09:08:58;20.00;99.90
19941;DHT22;10132;50.864;5.176;2023-07-13T09:11:08;20.20;99.90
19941;DHT22;10132;50.864;5.176;2023-07-13T09:13:24;20.30;99.90
19941;DHT22;10132;50.864;5.176;2023-07-13T09:15:30;20.10;99.90
19941;DHT22;10132;50.864;5.176;2023-07-13T09:17:37;20.40;99.90
19941;DHT22;10132;50.864;5.176;2023-07-13T09:19:46;20.60;99.90
19941;DHT22;10132;50.864;5.176;2023-07-13T09:21:49;20.70;99.90
19941;DHT22;10132;50.864;5.176;2023-07-13T09:23:58;20.90;99.90
19941;DHT22;10132;50.864;5.176;2023-07-13T09:26:04;20.90;99.90
19941;DHT22;10132;50.864;5.176;2023-07-13T09:28:12;21.20;99.90
19941;DHT22;10132;50.864;5.176;2023-07-13T09:30:27;21.30;99.90
19941;DHT22;10132;50.864;5.176;2023-07-13T09:32:33;21.40;99.90
19941;DHT22;10132;50.864;5.176;2023-07-13T09:34:35;21.10;99.90
19941;DHT22;10132;50.864;5.176;2023-07-13T09:36:37;20.80;99.90
19941;DHT22;10132;50.864;5.176;2023-07-13T09:38:39;20.60;99.90
19941;DHT22;10132;50.864;5.176;2023-07-13T09:40:54;20.70;99.90
19941;DHT22;10132;50.864;5.176;2023-07-13T09:42:59;21.10;99.90
19941;DHT22;10132;50.864;5.176;2023-07-13T09:45:03;21.00;99.90
19941;DHT22;10132;50.864;5.176;2023-07-13T09:47:16;21.10;99.90
19941;DHT22;10132;50.864;5.176;2023-07-13T09:49:22;21.10;99.90
19941;DHT22;10132;50.864;5.176;2023-07-13T09:51:25;21.10;99.90
19941;DHT22;10132;50.864;5.176;2023-07-13T09:53:31;21.00;99.90
19941;DHT22;10132;50.864;5.176;2023-07-13T09:55:35;20.90;99.90
19941;DHT22;10132;50.864;5.176;2023-07-13T09:57:46;20.90;99.90
19941;DHT22;10132;50.864;5.176;2023-07-13T09:59:50;20.70;99.90
19941;DHT22;10132;50.864;5.176;2023-07-13T10:01:52;20.90;99.90
19941;DHT22;10132;50.864;5.176;2023-07-13T10:03:55;21.40;99.90
19941;DHT22;10132;50.864;5.176;2023-07-13T10:06:09;21.40;99.90
19941;DHT22;10132;50.864;5.176;2023-07-13T10:08:17;21.50;99.90
19941;DHT22;10132;50.864;5.176;2023-07-13T10:10:22;21.70;99.90
19941;DHT22;10132;50.864;5.176;2023-07-13T10:12:24;22.00;99.90
19941;DHT22;10132;50.864;5.176;2023-07-13T10:14:29;22.30;99.90
19941;DHT22;10132;50.864;5.176;2023-07-13T10:16:32;22.00;99.90
19941;DHT22;10132;50.864;5.176;2023-07-13T10:18:39;21.80;99.90
19941;DHT22;10132;50.864;5.176;2023-07-13T10:20:45;22.10;99.90
19941;DHT22;10132;50.864;5.176;2023-07-13T10:22:52;22.30;95.90
19941;DHT22;10132;50.864;5.176;2023-07-13T10:24:56;22.60;99.90
19941;DHT22;10132;50.864;5.176;2023-07-13T10:27:05;22.10;99.90
19941;DHT22;10132;50.864;5.176;2023-07-13T10:29:12;21.60;99.90
19941;DHT22;10132;50.864;5.176;2023-07-13T10:31:16;21.70;99.90
19941;DHT22;10132;50.864;5.176;2023-07-13T10:33:18;21.80;99.90
19941;DHT22;10132;50.864;5.176;2023-07-13T10:35:22;21.90;99.90
19941;DHT22;10132;50.864;5.176;2023-07-13T10:37:28;21.40;99.90
19941;DHT22;10132;50.864;5.176;2023-07-13T10:39:34;21.40;99.90
19941;DHT22;10132;50.864;5.176;2023-07-13T10:41:39;21.60;99.90
19941;DHT22;10132;50.864;5.176;2023-07-13T10:43:43;21.90;99.90
19941;DHT22;10132;50.864;5.176;2023-07-13T10:45:47;21.60;99.90
19941;DHT22;10132;50.864;5.176;2023-07-13T10:47:52;21.40;99.90
19941;DHT22;10132;50.864;5.176;2023-07-13T10:49:57;21.60;99.90
19941;DHT22;10132;50.864;5.176;2023-07-13T10:52:00;22.00;99.90
19941;DHT22;10132;50.864;5.176;2023-07-13T10:54:23;22.50;98.90
19941;DHT22;10132;50.864;5.176;2023-07-13T10:56:29;22.50;62.90
19941;DHT22;10132;50.864;5.176;2023-07-13T10:58:33;22.40;58.90
19941;DHT22;10132;50.864;5.176;2023-07-13T11:00:44;22.00;84.90
19941;DHT22;10132;50.864;5.176;2023-07-13T11:02:56;21.90;93.20
19941;DHT22;10132;50.864;5.176;2023-07-13T11:05:17;21.70;94.50
19941;DHT22;10132;50.864;5.176;2023-07-13T11:07:24;22.10;83.90
19941;DHT22;10132;50.864;5.176;2023-07-13T11:09:39;22.20;85.60
19941;DHT22;10132;50.864;5.176;2023-07-13T11:11:41;22.40;93.30
19941;DHT22;10132;50.864;5.176;2023-07-13T11:13:58;22.70;80.50
19941;DHT22;10132;50.864;5.176;2023-07-13T11:16:13;22.40;58.20
19941;DHT22;10132;50.864;5.176;2023-07-13T11:18:23;22.30;82.80
19941;DHT22;10132;50.864;5.176;2023-07-13T11:20:37;22.50;85.10
19941;DHT22;10132;50.864;5.176;2023-07-13T11:22:44;22.80;56.80
19941;DHT22;10132;50.864;5.176;2023-07-13T11:24:58;22.80;61.70
19941;DHT22;10132;50.864;5.176;2023-07-13T11:27:21;23.30;54.50
19941;DHT22;10132;50.864;5.176;2023-07-13T11:29:32;22.90;50.40
19941;DHT22;10132;50.864;5.176;2023-07-13T11:31:35;22.50;77.90
19941;DHT22;10132;50.864;5.176;2023-07-13T11:34:01;22.80;59.00
19941;DHT22;10132;50.864;5.176;2023-07-13T11:36:07;22.90;48.40
19941;DHT22;10132;50.864;5.176;2023-07-13T11:38:16;22.50;46.70
19941;DHT22;10132;50.864;5.176;2023-07-13T11:40:22;22.50;51.30
19941;DHT22;10132;50.864;5.176;2023-07-13T11:42:28;22.50;22.00
19941;DHT22;10132;50.864;5.176;2023-07-13T11:44:33;22.50;26.40
19941;DHT22;10132;50.864;5.176;2023-07-13T11:46:35;22.50;24.10
19941;DHT22;10132;50.864;5.176;2023-07-13T11:48:37;22.40;17.20
19941;DHT22;10132;50.864;5.176;2023-07-13T11:50:41;22.10;34.80
19941;DHT22;10132;50.864;5.176;2023-07-13T11:52:43;22.50;34.00
19941;DHT22;10132;50.864;5.176;2023-07-13T11:54:48;22.70;14.50
19941;DHT22;10132;50.864;5.176;2023-07-13T11:56:53;22.80;35.50
19941;DHT22;10132;50.864;5.176;2023-07-13T11:58:57;23.30;64.70
19941;DHT22;10132;50.864;5.176;2023-07-13T12:01:01;23.30;17.80
19941;DHT22;10132;50.864;5.176;2023-07-13T12:03:05;22.80;39.90
19941;DHT22;10132;50.864;5.176;2023-07-13T12:05:10;23.40;1.70
19941;DHT22;10132;50.864;5.176;2023-07-13T12:07:16;23.60;1.00
19941;DHT22;10132;50.864;5.176;2023-07-13T12:09:18;23.70;1.00
19941;DHT22;10132;50.864;5.176;2023-07-13T12:11:26;23.80;1.00
19941;DHT22;10132;50.864;5.176;2023-07-13T12:13:29;24.00;1.00
19941;DHT22;10132;50.864;5.176;2023-07-13T12:15:38;23.90;1.00
19941;DHT22;10132;50.864;5.176;2023-07-13T12:17:41;23.90;1.00
19941;DHT22;10132;50.864;5.176;2023-07-13T12:19:43;23.80;1.00
19941;DHT22;10132;50.864;5.176;2023-07-13T12:21:46;23.80;1.00
19941;DHT22;10132;50.864;5.176;2023-07-13T12:23:49;23.70;1.00
19941;DHT22;10132;50.864;5.176;2023-07-13T12:25:52;23.50;1.00
19941;DHT22;10132;50.864;5.176;2023-07-13T12:27:54;23.30;1.00
19941;DHT22;10132;50.864;5.176;2023-07-13T12:30:02;23.60;1.00
19941;DHT22;10132;50.864;5.176;2023-07-13T12:32:08;24.10;1.00
19941;DHT22;10132;50.864;5.176;2023-07-13T12:34:12;24.00;1.00
19941;DHT22;10132;50.864;5.176;2023-07-13T12:36:14;24.40;1.00
19941;DHT22;10132;50.864;5.176;2023-07-13T12:38:18;24.40;1.00
19941;DHT22;10132;50.864;5.176;2023-07-13T12:40:27;24.40;1.00
19941;DHT22;10132;50.864;5.176;2023-07-13T12:42:32;24.70;1.00
19941;DHT22;10132;50.864;5.176;2023-07-13T12:44:40;24.80;1.00
19941;DHT22;10132;50.864;5.176;2023-07-13T12:46:54;25.00;1.00
19941;DHT22;10132;50.864;5.176;2023-07-13T12:48:57;24.80;1.00
19941;DHT22;10132;50.864;5.176;2023-07-13T12:51:01;24.80;1.00
19941;DHT22;10132;50.864;5.176;2023-07-13T12:53:04;24.50;1.00
19941;DHT22;10132;50.864;5.176;2023-07-13T12:55:11;24.10;1.00
19941;DHT22;10132;50.864;5.176;2023-07-13T12:57:17;24.00;1.00
19941;DHT22;10132;50.864;5.176;2023-07-13T12:59:20;23.50;1.00
19941;DHT22;10132;50.864;5.176;2023-07-13T13:01:23;23.10;1.00
19941;DHT22;10132;50.864;5.176;2023-07-13T13:03:31;22.80;1.00
19941;DHT22;10132;50.864;5.176;2023-07-13T13:05:33;22.80;1.00
19941;DHT22;10132;50.864;5.176;2023-07-13T13:07:34;22.70;1.00